Warning: Javascript must be enabled to use all the features on this page!


Page Loading - Please Wait...

Click to hideNews Bulletins

Peak Streamflow for the Nation

USGS 01415000 TREMPER KILL NEAR ANDES NY

Delaware County, New York
Hydrologic Unit Code 02040102
Latitude  42°07'12", Longitude  74°49'07" NAD83
Drainage area 33.2  square miles
Contributing drainage area 33.2  square miles
Gage datum 1,285.20 feet above NAVD88
Output formats
Table
Graph
Tab-separated file
peakfq (watstore) format
Reselect output format
Water
Year
Date Gage
Height
(feet)
Stream-
flow
(cfs)
1937 1937-05-15 3.553,6 568
1938 1938-09-21 7.12 4,250
1939 1939-02-15 4.77 1,390
1940 1940-03-31 6.10 2,800
1941 1940-12-29 4.32 976
1942 1942-03-09 5.11 1,700
1943 1942-12-30 5.24 1,830
1944 1943-11-09 4.68 1,280
1945 1945-03-18 3.672 642
1946 1946-03-09 3.86 792
1947 1947-04-05 4.00 1,010
1948 1948-03-22 6.37 3,050
1949 1948-12-30 5.24 2,040
1950 1950-03-28 4.18 1,090
1951 1950-12-04 5.51 2,280
1952 1951-11-07 4.14 1,060
1953 1952-12-11 5.15 1,960
1954 1954-02-17 3.93 884
1955 1955-08-19 5.08 1,8909
1956 1956-04-04 4.32 1,210
1957 1957-01-23 4.01 948
1958 1957-12-21 6.26 2,800
1959 1959-01-22 6.08 2,590
1960 1960-09-20 6.08 2,590
1961 1961-02-26 5.22 1,550
1962 1962-04-01 5.19 1,040
1963 1963-03-27 5.53 1,930
1964 1964-03-05 5.28 1,630
1965 1965-02-08 4.47 690
1966 1966-03-05 4.072 384
1967 1967-04-02 4.22 556
1968 1968-04-24 4.62 898
1969 1969-04-05 4.59 871
1970 1970-04-02 4.89 1,160
1971 1971-03-15 4.36 668
1972 1972-03-02 5.33 1,690
1973 1973-06-29 4.95 1,230
1974 1973-12-21 5.70 2,130
1975 1975-02-24 4.902 1,170
1976 1976-01-27 5.222 1,360
1977 1977-03-14 6.11 2,500
1978 1978-01-09 6.16 2,580
1979 1979-01-02 5.27 1,380
1980 1980-03-22 5.23 1,340
1981 1981-02-11 6.131 1,8002
1982 1982-04-18   1,0002
1983 1983-04-16   8002
1984 1984-05-29 6.06 2,300
1985 1985-09-27 4.57 691
1986 1986-03-15 6.09 2,350
1987 1987-04-04 5.34 1,540
1988 1988-05-24 5.06 1,240
1989 1989-05-06 4.422 666
1990 1990-01-26 4.18 532
1991 1990-11-10 4.80 1,000
1992 1991-11-23 5.23 1,420
1993 1993-03-30 4.69 906
1994 1994-04-07 4.562 800
1995 1995-03-08 3.982 413
1996 1996-01-19 7.69 5,000
1997 1996-11-09 6.76 2,7002
1998 1998-07-08 5.81 2,170
1999 1999-01-24 5.24 1,0002
2000 2000-02-28 4.70 872
2001 2000-12-17 4.89 1,050
2002 2002-03-27 4.03 403
2003 2003-09-04 5.36 1,590
2004 2004-09-18 6.94 3,740
2005 2005-04-02 6.10 2,530
2006 2006-06-28 6.42 2,970
2007 2007-04-16 5.00 1,320
2008 2008-07-23 5.56 1,940
2009 2008-12-12 4.95 1,250
2010 2010-01-25 5.17 1,480
2011 2010-10-01 8.51 5,900
2012 2012-05-15 4.29 632
2013 2013-03-12 4.54 790
2014 2014-06-25 5.51 1,580
2015 2015-04-08 4.32 650
2016 2016-02-25 5.08 1,200
2017 2017-04-06 4.54 790
2018 2018-07-26 5.30 1,390
2019 2019-04-15 4.832 997
2020 2020-08-04 4.43 719
?
  Peak Gage-Height Qualification Codes.
?
  Peak Streamflow Qualification Codes.